PWSweather.com
Personal Weather Stations
Station Observations
S56IPS
Mostec 12, MostecSI 8257

Mostec 12MostecSI 8257

Lat: 45.899181, Lon: 15.628339

Elevation: 143

Station Type: WX-2008

Latest ConditionsUpdated 6:35:01 PM GMT+01:01 Saturday, Jan 31, 2015
Currently Today's Max Today's Min Today's Average
Temperature 38.5°F3.6°C 54.3°F12.4°C 27.9°F-2.3°C 36.8°F2.7°C
Dew Point 34.4°F1.3°C 44.5°F6.9°C 27.6°F-2.4°C 33.4°F0.8°C
Winds Calm Calm 1.6 mph SE2.6 kmh SE - 0.1 mph 0.2 kmh
Wind Gusts 0.2 mph0.3 kmh 2.9 mph4.7 kmh - -
Humidity 85% 99% 66% 88%
Pressure 29.06 in984.1 mb 29.06 in984.1 mb 28.83 in976.3 mb -
Hour Temp Dew Point Humidity Winds Wind Gusts Pressure Precip Precip Rate Daily Precip Total
06:35 PM 38.5°F3.6°C 34.4°F1.3°C 85% Calm Calm 0.2 mph0.3 kmh 29.06 in984.1 mb 0.00 in0.0 mm 0.00 in/hr0.0 mm/hr 0.00 in0.0 mm
06:30 PM 38.7°F3.7°C 34.5°F1.4°C 85% Calm Calm 0.2 mph0.3 kmh 29.06 in984.1 mb 0.00 in0.0 mm 0.00 in/hr0.0 mm/hr 0.00 in0.0 mm
06:25 PM 39.0°F3.9°C 34.9°F1.6°C 85% Calm Calm 0.4 mph0.6 kmh 29.06 in984.1 mb 0.00 in0.0 mm 0.00 in/hr0.0 mm/hr 0.00 in0.0 mm
06:20 PM 38.8°F3.8°C 34.7°F1.5°C 85% Calm Calm 0.7 mph1.1 kmh 29.06 in984.1 mb 0.00 in0.0 mm 0.00 in/hr0.0 mm/hr 0.00 in0.0 mm
06:15 PM 38.7°F3.7°C 34.5°F1.4°C 85% Calm Calm 0.7 mph1.1 kmh 29.06 in984.1 mb 0.00 in0.0 mm 0.00 in/hr0.0 mm/hr 0.00 in0.0 mm
06:10 PM 38.7°F3.7°C 34.5°F1.4°C 85% Calm Calm 0.4 mph0.6 kmh 29.06 in984.1 mb 0.00 in0.0 mm 0.00 in/hr0.0 mm/hr 0.00 in0.0 mm
06:05 PM 38.5°F3.6°C 34.1°F1.2°C 84% Calm Calm -- 29.06 in984.1 mb 0.00 in0.0 mm 0.00 in/hr0.0 mm/hr 0.00 in0.0 mm
06:00 PM 38.7°F3.7°C 34.3°F1.3°C 84% Calm Calm 0.2 mph0.3 kmh 29.06 in984.1 mb 0.00 in0.0 mm 0.00 in/hr0.0 mm/hr 0.00 in0.0 mm
05:55 PM 38.7°F3.7°C 34.3°F1.3°C 84% Calm Calm 0.2 mph0.3 kmh 29.05 in983.7 mb 0.00 in0.0 mm 0.00 in/hr0.0 mm/hr 0.00 in0.0 mm
05:50 PM 38.7°F3.7°C 34.3°F1.3°C 84% Calm Calm 0.2 mph0.3 kmh 29.05 in983.7 mb 0.00 in0.0 mm 0.00 in/hr0.0 mm/hr 0.00 in0.0 mm
05:45 PM 38.8°F3.8°C 34.1°F1.2°C 83% Calm Calm 0.2 mph0.3 kmh 29.06 in984.1 mb 0.00 in0.0 mm 0.00 in/hr0.0 mm/hr 0.00 in0.0 mm
05:40 PM 38.7°F3.7°C 34.0°F1.1°C 83% Calm Calm 0.2 mph0.3 kmh 29.06 in984.1 mb 0.00 in0.0 mm 0.00 in/hr0.0 mm/hr 0.00 in0.0 mm
05:35 PM 38.7°F3.7°C 34.0°F1.1°C 83% Calm Calm 0.2 mph0.3 kmh 29.05 in983.7 mb 0.00 in0.0 mm 0.00 in/hr0.0 mm/hr 0.00 in0.0 mm
05:30 PM 38.7°F3.7°C 33.7°F0.9°C 82% Calm Calm 0.2 mph0.3 kmh 29.05 in983.7 mb 0.00 in0.0 mm 0.00 in/hr0.0 mm/hr 0.00 in0.0 mm
05:25 PM 38.7°F3.7°C 33.7°F0.9°C 82% Calm Calm 0.2 mph0.3 kmh 29.05 in983.7 mb 0.00 in0.0 mm 0.00 in/hr0.0 mm/hr 0.00 in0.0 mm
05:20 PM 39.0°F3.9°C 33.7°F0.9°C 81% Calm Calm -- 29.04 in983.4 mb 0.00 in0.0 mm 0.00 in/hr0.0 mm/hr 0.00 in0.0 mm
05:15 PM 39.0°F3.9°C 33.7°F0.9°C 81% Calm Calm 0.2 mph0.3 kmh 29.04 in983.4 mb 0.00 in0.0 mm 0.00 in/hr0.0 mm/hr 0.00 in0.0 mm
05:10 PM 39.4°F4.1°C 33.7°F0.9°C 80% Calm Calm 0.2 mph0.3 kmh 29.04 in983.4 mb 0.00 in0.0 mm 0.00 in/hr0.0 mm/hr 0.00 in0.0 mm
05:05 PM 40.1°F4.5°C 34.1°F1.2°C 79% Calm Calm 0.2 mph0.3 kmh 29.04 in983.4 mb 0.00 in0.0 mm 0.00 in/hr0.0 mm/hr 0.00 in0.0 mm
05:00 PM 40.1°F4.5°C 34.1°F1.2°C 79% Calm Calm 0.2 mph0.3 kmh 29.03 in983.1 mb 0.00 in0.0 mm 0.00 in/hr0.0 mm/hr 0.00 in0.0 mm
04:55 PM 40.5°F4.7°C 34.2°F1.2°C 78% Calm Calm 0.2 mph0.3 kmh 29.04 in983.4 mb 0.00 in0.0 mm 0.00 in/hr0.0 mm/hr 0.00 in0.0 mm
04:50 PM 40.8°F4.9°C 34.5°F1.4°C 78% Calm Calm 0.2 mph0.3 kmh 29.04 in983.4 mb 0.00 in0.0 mm 0.00 in/hr0.0 mm/hr 0.00 in0.0 mm
04:45 PM 41.4°F5.2°C 34.7°F1.5°C 77% Calm Calm 0.2 mph0.3 kmh 29.03 in983.1 mb 0.00 in0.0 mm 0.00 in/hr0.0 mm/hr 0.00 in0.0 mm
04:40 PM 41.7°F5.4°C 34.7°F1.5°C 76% Calm Calm 0.4 mph0.6 kmh 29.03 in983.1 mb 0.00 in0.0 mm 0.00 in/hr0.0 mm/hr 0.00 in0.0 mm
04:35 PM 42.3°F5.7°C 35.2°F1.8°C 76% Calm Calm 0.4 mph0.6 kmh 29.03 in983.1 mb 0.00 in0.0 mm 0.00 in/hr0.0 mm/hr 0.00 in0.0 mm
04:30 PM 42.6°F5.9°C 35.6°F2.0°C 76% Calm Calm 0.2 mph0.3 kmh 29.03 in983.1 mb 0.00 in0.0 mm 0.00 in/hr0.0 mm/hr 0.00 in0.0 mm
04:25 PM 43.2°F6.2°C 35.8°F2.1°C 75% Calm Calm 0.2 mph0.3 kmh 29.03 in983.1 mb 0.00 in0.0 mm 0.00 in/hr0.0 mm/hr 0.00 in0.0 mm
04:20 PM 43.7°F6.5°C 36.3°F2.4°C 75% Calm Calm 0.2 mph0.3 kmh 29.03 in983.1 mb 0.00 in0.0 mm 0.00 in/hr0.0 mm/hr 0.00 in0.0 mm
04:15 PM 44.1°F6.7°C 36.7°F2.6°C 75% Calm Calm 0.2 mph0.3 kmh 29.03 in983.1 mb 0.00 in0.0 mm 0.00 in/hr0.0 mm/hr 0.00 in0.0 mm
04:10 PM 45.0°F7.2°C 37.2°F2.9°C 74% Calm Calm -- 29.03 in983.1 mb 0.00 in0.0 mm 0.00 in/hr0.0 mm/hr 0.00 in0.0 mm
04:05 PM 44.8°F7.1°C 37.0°F2.8°C 74% Calm Calm 0.2 mph0.3 kmh 29.03 in983.1 mb 0.00 in0.0 mm 0.00 in/hr0.0 mm/hr 0.00 in0.0 mm
04:00 PM 44.8°F7.1°C 37.0°F2.8°C 74% Calm Calm 0.2 mph0.3 kmh 29.03 in983.1 mb 0.00 in0.0 mm 0.00 in/hr0.0 mm/hr 0.00 in0.0 mm
03:55 PM 44.2°F6.8°C 36.1°F2.3°C 73% Calm Calm 0.2 mph0.3 kmh 29.03 in983.1 mb 0.00 in0.0 mm 0.00 in/hr0.0 mm/hr 0.00 in0.0 mm
03:50 PM 44.4°F6.9°C 35.6°F2.0°C 71% Calm Calm -- 29.03 in983.1 mb 0.00 in0.0 mm 0.00 in/hr0.0 mm/hr 0.00 in0.0 mm
03:45 PM 45.0°F7.2°C 36.1°F2.3°C 71% Calm Calm -- 29.03 in983.1 mb 0.00 in0.0 mm 0.00 in/hr0.0 mm/hr 0.00 in0.0 mm
03:40 PM 45.5°F7.5°C 36.3°F2.4°C 70% Calm Calm -- 29.03 in983.1 mb 0.00 in0.0 mm 0.00 in/hr0.0 mm/hr 0.00 in0.0 mm
03:35 PM 46.0°F7.8°C 36.4°F2.4°C 69% Calm Calm -- 29.03 in983.1 mb 0.00 in0.0 mm 0.00 in/hr0.0 mm/hr 0.00 in0.0 mm
03:30 PM 47.3°F8.5°C 37.3°F2.9°C 68% Calm Calm -- 29.03 in983.1 mb 0.00 in0.0 mm 0.00 in/hr0.0 mm/hr 0.00 in0.0 mm
03:25 PM 49.3°F9.6°C 39.6°F4.2°C 69% Calm Calm 0.2 mph0.3 kmh 29.02 in982.7 mb 0.00 in0.0 mm 0.00 in/hr0.0 mm/hr 0.00 in0.0 mm
03:20 PM 49.5°F9.7°C 40.1°F4.5°C 70% Calm Calm 0.2 mph0.3 kmh 29.03 in983.1 mb 0.00 in0.0 mm 0.00 in/hr0.0 mm/hr 0.00 in0.0 mm
03:15 PM 49.1°F9.5°C 40.1°F4.5°C 71% Calm Calm 0.2 mph0.3 kmh 29.02 in982.7 mb 0.00 in0.0 mm 0.00 in/hr0.0 mm/hr 0.00 in0.0 mm
03:10 PM 48.6°F9.2°C 39.2°F4.0°C 70% Calm Calm 0.2 mph0.3 kmh 29.02 in982.7 mb 0.00 in0.0 mm 0.00 in/hr0.0 mm/hr 0.00 in0.0 mm
03:05 PM 48.4°F9.1°C 39.8°F4.3°C 72% Calm Calm 0.2 mph0.3 kmh 29.03 in983.1 mb 0.00 in0.0 mm 0.00 in/hr0.0 mm/hr 0.00 in0.0 mm
03:00 PM 48.4°F9.1°C 39.8°F4.3°C 72% Calm Calm 0.2 mph0.3 kmh 29.02 in982.7 mb 0.00 in0.0 mm 0.00 in/hr0.0 mm/hr 0.00 in0.0 mm
02:55 PM 47.5°F8.6°C 38.9°F3.8°C 72% Calm Calm 0.2 mph0.3 kmh 29.03 in983.1 mb 0.00 in0.0 mm 0.00 in/hr0.0 mm/hr 0.00 in0.0 mm
02:50 PM 46.8°F8.2°C 38.2°F3.4°C 72% Calm Calm 0.2 mph0.3 kmh 29.02 in982.7 mb 0.00 in0.0 mm 0.00 in/hr0.0 mm/hr 0.00 in0.0 mm
02:45 PM 46.4°F8.0°C 37.9°F3.3°C 72% Calm Calm -- 29.02 in982.7 mb 0.00 in0.0 mm 0.00 in/hr0.0 mm/hr 0.00 in0.0 mm
02:40 PM 46.6°F8.1°C 38.0°F3.3°C 72% Calm Calm 0.9 mph1.4 kmh 29.02 in982.7 mb 0.00 in0.0 mm 0.00 in/hr0.0 mm/hr 0.00 in0.0 mm
02:35 PM 46.4°F8.0°C 37.5°F3.1°C 71% Calm Calm 0.9 mph1.4 kmh 29.02 in982.7 mb 0.00 in0.0 mm 0.00 in/hr0.0 mm/hr 0.00 in0.0 mm
02:30 PM 46.6°F8.1°C 37.7°F3.2°C 71% Calm Calm 0.7 mph1.1 kmh 29.02 in982.7 mb 0.00 in0.0 mm 0.00 in/hr0.0 mm/hr 0.00 in0.0 mm
02:25 PM 46.9°F8.3°C 37.3°F2.9°C 69% Calm Calm 0.7 mph1.1 kmh 29.02 in982.7 mb 0.00 in0.0 mm 0.00 in/hr0.0 mm/hr 0.00 in0.0 mm
02:20 PM 47.7°F8.7°C 38.0°F3.3°C 69% Calm Calm 0.7 mph1.1 kmh 29.03 in983.1 mb 0.00 in0.0 mm 0.00 in/hr0.0 mm/hr 0.00 in0.0 mm
02:15 PM 48.2°F9.0°C 38.1°F3.4°C 68% Calm Calm 0.4 mph0.6 kmh 29.03 in983.1 mb 0.00 in0.0 mm 0.00 in/hr0.0 mm/hr 0.00 in0.0 mm
02:10 PM 49.1°F9.5°C 38.6°F3.7°C 67% Calm Calm 0.4 mph0.6 kmh 29.03 in983.1 mb 0.00 in0.0 mm 0.00 in/hr0.0 mm/hr 0.00 in0.0 mm
02:05 PM 51.8°F11.0°C 40.8°F4.9°C 66% Calm Calm 0.4 mph0.6 kmh 29.03 in983.1 mb 0.00 in0.0 mm 0.00 in/hr0.0 mm/hr 0.00 in0.0 mm
02:00 PM 51.8°F11.0°C 40.8°F4.9°C 66% Calm Calm 0.4 mph0.6 kmh 29.02 in982.7 mb 0.00 in0.0 mm 0.00 in/hr0.0 mm/hr 0.00 in0.0 mm
01:55 PM 53.1°F11.7°C 42.0°F5.6°C 66% Calm Calm 0.2 mph0.3 kmh 29.03 in983.1 mb 0.00 in0.0 mm 0.00 in/hr0.0 mm/hr 0.00 in0.0 mm
01:50 PM 54.3°F12.4°C 43.6°F6.4°C 67% Calm Calm 0.4 mph0.6 kmh 29.02 in982.7 mb 0.00 in0.0 mm 0.00 in/hr0.0 mm/hr 0.00 in0.0 mm
01:45 PM 54.3°F12.4°C 44.0°F6.7°C 68% Calm Calm 0.4 mph0.6 kmh 29.02 in982.7 mb 0.00 in0.0 mm 0.00 in/hr0.0 mm/hr 0.00 in0.0 mm
01:40 PM 54.3°F12.4°C 44.4°F6.9°C 69% Calm Calm 0.7 mph1.1 kmh 29.02 in982.7 mb 0.00 in0.0 mm 0.00 in/hr0.0 mm/hr 0.00 in0.0 mm
01:35 PM 54.1°F12.3°C 44.2°F6.8°C 69% Calm Calm 0.7 mph1.1 kmh 29.02 in982.7 mb 0.00 in0.0 mm 0.00 in/hr0.0 mm/hr 0.00 in0.0 mm
01:30 PM 53.2°F11.8°C 44.5°F6.9°C 72% Calm Calm 0.7 mph1.1 kmh 29.02 in982.7 mb 0.00 in0.0 mm 0.00 in/hr0.0 mm/hr 0.00 in0.0 mm
01:25 PM 52.9°F11.6°C 44.5°F6.9°C 73% Calm Calm 0.2 mph0.3 kmh 29.02 in982.7 mb 0.00 in0.0 mm 0.00 in/hr0.0 mm/hr 0.00 in0.0 mm
01:20 PM 51.4°F10.8°C 44.1°F6.7°C 76% Calm Calm 0.2 mph0.3 kmh 29.02 in982.7 mb 0.00 in0.0 mm 0.00 in/hr0.0 mm/hr 0.00 in0.0 mm
01:15 PM 49.5°F9.7°C 42.6°F5.9°C 77% Calm Calm 0.7 mph1.1 kmh 29.02 in982.7 mb 0.00 in0.0 mm 0.00 in/hr0.0 mm/hr 0.00 in0.0 mm
01:10 PM 46.4°F8.0°C 38.9°F3.8°C 75% Calm Calm 0.7 mph1.1 kmh 29.03 in983.1 mb 0.00 in0.0 mm 0.00 in/hr0.0 mm/hr 0.00 in0.0 mm
01:05 PM 43.7°F6.5°C 36.0°F2.2°C 74% 0.2 mph NW0.3 kmh NW 0.7 mph1.1 kmh 29.03 in983.1 mb 0.00 in0.0 mm 0.00 in/hr0.0 mm/hr 0.00 in0.0 mm
01:00 PM 43.7°F6.5°C 36.0°F2.2°C 74% 0.2 mph SE0.3 kmh SE 1.1 mph1.8 kmh 29.03 in983.1 mb 0.00 in0.0 mm 0.00 in/hr0.0 mm/hr 0.00 in0.0 mm
12:55 PM 43.3°F6.3°C 35.6°F2.0°C 74% 0.2 mph SE0.3 kmh SE 1.3 mph2.1 kmh 29.03 in983.1 mb 0.00 in0.0 mm 0.00 in/hr0.0 mm/hr 0.00 in0.0 mm
12:50 PM 43.0°F6.1°C 34.9°F1.6°C 73% 0.4 mph ESE0.6 kmh ESE 1.3 mph2.1 kmh 29.02 in982.7 mb 0.00 in0.0 mm 0.00 in/hr0.0 mm/hr 0.00 in0.0 mm
12:45 PM 43.0°F6.1°C 35.3°F1.8°C 74% Calm Calm 1.1 mph1.8 kmh 29.03 in983.1 mb 0.00 in0.0 mm 0.00 in/hr0.0 mm/hr 0.00 in0.0 mm
12:40 PM 42.8°F6.0°C 35.1°F1.7°C 74% 0.4 mph SE0.6 kmh SE 1.3 mph2.1 kmh 29.03 in983.1 mb 0.00 in0.0 mm 0.00 in/hr0.0 mm/hr 0.00 in0.0 mm
12:35 PM 42.6°F5.9°C 34.9°F1.6°C 74% 0.2 mph SE0.3 kmh SE 1.3 mph2.1 kmh 29.03 in983.1 mb 0.00 in0.0 mm 0.00 in/hr0.0 mm/hr 0.00 in0.0 mm
12:30 PM 42.4°F5.8°C 34.8°F1.6°C 74% 0.4 mph SE0.6 kmh SE 1.3 mph2.1 kmh 29.03 in983.1 mb 0.00 in0.0 mm 0.00 in/hr0.0 mm/hr 0.00 in0.0 mm
12:25 PM 42.3°F5.7°C 34.9°F1.6°C 75% 0.7 mph SE1.1 kmh SE 1.3 mph2.1 kmh 29.03 in983.1 mb 0.00 in0.0 mm 0.00 in/hr0.0 mm/hr 0.00 in0.0 mm
12:20 PM 42.1°F5.6°C 35.4°F1.9°C 77% 0.4 mph SE0.6 kmh SE 1.3 mph2.1 kmh 29.03 in983.1 mb 0.00 in0.0 mm 0.00 in/hr0.0 mm/hr 0.00 in0.0 mm
12:15 PM 41.7°F5.4°C 35.1°F1.7°C 77% 0.4 mph SE0.6 kmh SE 1.3 mph2.1 kmh 29.03 in983.1 mb 0.00 in0.0 mm 0.00 in/hr0.0 mm/hr 0.00 in0.0 mm
12:10 PM 41.4°F5.2°C 34.7°F1.5°C 77% 0.7 mph SE1.1 kmh SE 1.1 mph1.8 kmh 29.03 in983.1 mb 0.00 in0.0 mm 0.00 in/hr0.0 mm/hr 0.00 in0.0 mm
12:05 PM 40.6°F4.8°C 34.0°F1.1°C 77% 0.2 mph SSE0.3 kmh SSE 1.1 mph1.8 kmh 29.03 in983.1 mb 0.00 in0.0 mm 0.00 in/hr0.0 mm/hr 0.00 in0.0 mm
12:00 PM 40.6°F4.8°C 34.0°F1.1°C 77% 0.2 mph ESE0.3 kmh ESE 1.1 mph1.8 kmh 29.03 in983.1 mb 0.00 in0.0 mm 0.00 in/hr0.0 mm/hr 0.00 in0.0 mm
11:55 AM 40.5°F4.7°C 33.8°F1.0°C 77% 0.2 mph SE0.3 kmh SE 1.6 mph2.6 kmh 29.03 in983.1 mb 0.00 in0.0 mm 0.00 in/hr0.0 mm/hr 0.00 in0.0 mm
11:50 AM 40.3°F4.6°C 34.0°F1.1°C 78% 0.7 mph SE1.1 kmh SE 1.6 mph2.6 kmh 29.03 in983.1 mb 0.00 in0.0 mm 0.00 in/hr0.0 mm/hr 0.00 in0.0 mm
11:45 AM 40.1°F4.5°C 34.4°F1.3°C 80% 0.7 mph ESE1.1 kmh ESE 1.1 mph1.8 kmh 29.03 in983.1 mb 0.00 in0.0 mm 0.00 in/hr0.0 mm/hr 0.00 in0.0 mm
11:40 AM 39.9°F4.4°C 34.6°F1.4°C 81% 0.4 mph SE0.6 kmh SE 1.1 mph1.8 kmh 29.03 in983.1 mb 0.00 in0.0 mm 0.00 in/hr0.0 mm/hr 0.00 in0.0 mm
11:35 AM 39.6°F4.2°C 34.5°F1.4°C 82% 0.4 mph SE0.6 kmh SE 1.1 mph1.8 kmh 29.03 in983.1 mb 0.00 in0.0 mm 0.00 in/hr0.0 mm/hr 0.00 in0.0 mm
11:30 AM 39.4°F4.1°C 34.4°F1.3°C 82% 0.4 mph SE0.6 kmh SE 1.3 mph2.1 kmh 29.03 in983.1 mb 0.00 in0.0 mm 0.00 in/hr0.0 mm/hr 0.00 in0.0 mm
11:25 AM 39.2°F4.0°C 34.5°F1.4°C 83% 0.2 mph SE0.3 kmh SE 1.3 mph2.1 kmh 29.03 in983.1 mb 0.00 in0.0 mm 0.00 in/hr0.0 mm/hr 0.00 in0.0 mm
11:20 AM 38.8°F3.8°C 34.4°F1.3°C 84% 0.4 mph SE0.6 kmh SE 1.3 mph2.1 kmh 29.04 in983.4 mb 0.00 in0.0 mm 0.00 in/hr0.0 mm/hr 0.00 in0.0 mm
11:15 AM 38.5°F3.6°C 34.1°F1.2°C 84% 0.2 mph SE0.3 kmh SE 0.9 mph1.4 kmh 29.04 in983.4 mb 0.00 in0.0 mm 0.00 in/hr0.0 mm/hr 0.00 in0.0 mm
11:10 AM 38.3°F3.5°C 34.5°F1.4°C 86% Calm Calm 0.9 mph1.4 kmh 29.03 in983.1 mb 0.00 in0.0 mm 0.00 in/hr0.0 mm/hr 0.00 in0.0 mm
11:05 AM 37.9°F3.3°C 34.1°F1.2°C 86% 0.2 mph SE0.3 kmh SE 0.9 mph1.4 kmh 29.03 in983.1 mb 0.00 in0.0 mm 0.00 in/hr0.0 mm/hr 0.00 in0.0 mm
11:00 AM 37.8°F3.2°C 34.2°F1.2°C 87% 0.4 mph SE0.6 kmh SE 0.9 mph1.4 kmh 29.03 in983.1 mb 0.00 in0.0 mm 0.00 in/hr0.0 mm/hr 0.00 in0.0 mm
10:55 AM 37.4°F3.0°C 34.2°F1.2°C 88% 0.2 mph SE0.3 kmh SE 0.9 mph1.4 kmh 29.03 in983.1 mb 0.00 in0.0 mm 0.00 in/hr0.0 mm/hr 0.00 in0.0 mm
10:50 AM 37.0°F2.8°C 34.1°F1.2°C 89% 0.4 mph SE0.6 kmh SE 0.9 mph1.4 kmh 29.04 in983.4 mb 0.00 in0.0 mm 0.00 in/hr0.0 mm/hr 0.00 in0.0 mm
10:45 AM 36.9°F2.7°C 34.5°F1.4°C 91% 0.2 mph SE0.3 kmh SE 0.9 mph1.4 kmh 29.03 in983.1 mb 0.00 in0.0 mm 0.00 in/hr0.0 mm/hr 0.00 in0.0 mm
10:40 AM 36.5°F2.5°C 34.4°F1.3°C 92% Calm Calm 0.7 mph1.1 kmh 29.03 in983.1 mb 0.00 in0.0 mm 0.00 in/hr0.0 mm/hr 0.00 in0.0 mm
10:35 AM 36.3°F2.4°C 34.5°F1.4°C 93% 0.2 mph ESE0.3 kmh ESE 0.9 mph1.4 kmh 29.03 in983.1 mb 0.00 in0.0 mm 0.00 in/hr0.0 mm/hr 0.00 in0.0 mm
10:30 AM 36.0°F2.2°C 34.7°F1.5°C 95% Calm Calm 0.9 mph1.4 kmh 29.03 in983.1 mb 0.00 in0.0 mm 0.00 in/hr0.0 mm/hr 0.00 in0.0 mm
10:25 AM 35.6°F2.0°C 34.6°F1.4°C 96% Calm Calm 0.9 mph1.4 kmh 29.03 in983.1 mb 0.00 in0.0 mm 0.00 in/hr0.0 mm/hr 0.00 in0.0 mm
10:20 AM 35.4°F1.9°C 34.9°F1.6°C 98% 0.4 mph SE0.6 kmh SE 0.9 mph1.4 kmh 29.03 in983.1 mb 0.00 in0.0 mm 0.00 in/hr0.0 mm/hr 0.00 in0.0 mm
10:15 AM 35.2°F1.8°C 35.0°F1.7°C 99% 0.2 mph SE0.3 kmh SE 0.9 mph1.4 kmh 29.03 in983.1 mb 0.00 in0.0 mm 0.00 in/hr0.0 mm/hr 0.00 in0.0 mm
10:10 AM 35.1°F1.7°C 34.8°F1.6°C 99% Calm Calm 0.7 mph1.1 kmh 29.02 in982.7 mb 0.00 in0.0 mm 0.00 in/hr0.0 mm/hr 0.00 in0.0 mm
10:05 AM 34.7°F1.5°C 34.5°F1.4°C 99% Calm Calm 0.2 mph0.3 kmh 29.02 in982.7 mb 0.00 in0.0 mm 0.00 in/hr0.0 mm/hr 0.00 in0.0 mm
10:00 AM 34.3°F1.3°C 34.1°F1.2°C 99% Calm Calm -- 29.02 in982.7 mb 0.00 in0.0 mm 0.00 in/hr0.0 mm/hr 0.00 in0.0 mm
09:55 AM 34.0°F1.1°C 33.7°F0.9°C 99% Calm Calm -- 29.02 in982.7 mb 0.00 in0.0 mm 0.00 in/hr0.0 mm/hr 0.00 in0.0 mm
09:50 AM 33.4°F0.8°C 33.2°F0.7°C 99% Calm Calm -- 29.01 in982.4 mb 0.00 in0.0 mm 0.00 in/hr0.0 mm/hr 0.00 in0.0 mm
09:45 AM 33.1°F0.6°C 32.8°F0.4°C 99% Calm Calm -- 29.01 in982.4 mb 0.00 in0.0 mm 0.00 in/hr0.0 mm/hr 0.00 in0.0 mm
09:40 AM 32.9°F0.5°C 32.7°F0.4°C 99% Calm Calm -- 29.01 in982.4 mb 0.00 in0.0 mm 0.00 in/hr0.0 mm/hr 0.00 in0.0 mm
09:35 AM 32.5°F0.3°C 32.3°F0.2°C 99% Calm Calm -- 29.01 in982.4 mb 0.00 in0.0 mm 0.00 in/hr0.0 mm/hr 0.00 in0.0 mm
09:30 AM 32.2°F0.1°C 31.9°F-0.1°C 99% Calm Calm -- 29.00 in982.1 mb 0.00 in0.0 mm 0.00 in/hr0.0 mm/hr 0.00 in0.0 mm
09:25 AM 32.0°F0.0°C 31.8°F-0.1°C 99% Calm Calm -- 29.00 in982.1 mb 0.00 in0.0 mm 0.00 in/hr0.0 mm/hr 0.00 in0.0 mm
09:20 AM 31.6°F-0.2°C 31.4°F-0.3°C 99% Calm Calm -- 29.00 in982.1 mb 0.00 in0.0 mm 0.00 in/hr0.0 mm/hr 0.00 in0.0 mm
09:15 AM 31.5°F-0.3°C 31.2°F-0.4°C 99% Calm Calm -- 29.01 in982.4 mb 0.00 in0.0 mm 0.00 in/hr0.0 mm/hr 0.00 in0.0 mm
09:10 AM 31.5°F-0.3°C 31.2°F-0.4°C 99% Calm Calm -- 29.00 in982.1 mb 0.00 in0.0 mm 0.00 in/hr0.0 mm/hr 0.00 in0.0 mm
09:05 AM 31.5°F-0.3°C 31.2°F-0.4°C 99% Calm Calm -- 29.00 in982.1 mb 0.00 in0.0 mm 0.00 in/hr0.0 mm/hr 0.00 in0.0 mm
09:00 AM 31.5°F-0.3°C 31.2°F-0.4°C 99% Calm Calm -- 29.00 in982.1 mb 0.00 in0.0 mm 0.00 in/hr0.0 mm/hr 0.00 in0.0 mm
08:55 AM 31.5°F-0.3°C 31.2°F-0.4°C 99% Calm Calm -- 29.00 in982.1 mb 0.00 in0.0 mm 0.00 in/hr0.0 mm/hr 0.00 in0.0 mm
08:50 AM 31.3°F-0.4°C 31.0°F-0.6°C 99% Calm Calm -- 29.00 in982.1 mb 0.00 in0.0 mm 0.00 in/hr0.0 mm/hr 0.00 in0.0 mm
08:45 AM 31.1°F-0.5°C 30.9°F-0.6°C 99% Calm Calm -- 28.99 in981.7 mb 0.00 in0.0 mm 0.00 in/hr0.0 mm/hr 0.00 in0.0 mm
08:40 AM 30.9°F-0.6°C 30.7°F-0.7°C 99% Calm Calm -- 28.99 in981.7 mb 0.00 in0.0 mm 0.00 in/hr0.0 mm/hr 0.00 in0.0 mm
08:35 AM 30.7°F-0.7°C 30.5°F-0.8°C 99% Calm Calm -- 28.98 in981.4 mb 0.00 in0.0 mm 0.00 in/hr0.0 mm/hr 0.00 in0.0 mm
08:30 AM 30.6°F-0.8°C 30.3°F-0.9°C 99% Calm Calm -- 28.98 in981.4 mb 0.00 in0.0 mm 0.00 in/hr0.0 mm/hr 0.00 in0.0 mm
08:25 AM 30.4°F-0.9°C 30.1°F-1.1°C 99% Calm Calm -- 28.99 in981.7 mb 0.00 in0.0 mm 0.00 in/hr0.0 mm/hr 0.00 in0.0 mm
08:20 AM 30.2°F-1.0°C 30.0°F-1.1°C 99% Calm Calm -- 28.98 in981.4 mb 0.00 in0.0 mm 0.00 in/hr0.0 mm/hr 0.00 in0.0 mm
08:15 AM 30.0°F-1.1°C 29.8°F-1.2°C 99% Calm Calm -- 28.98 in981.4 mb 0.00 in0.0 mm 0.00 in/hr0.0 mm/hr 0.00 in0.0 mm
08:10 AM 29.8°F-1.2°C 29.6°F-1.3°C 99% Calm Calm -- 28.98 in981.4 mb 0.00 in0.0 mm 0.00 in/hr0.0 mm/hr 0.00 in0.0 mm
08:05 AM 29.7°F-1.3°C 29.4°F-1.4°C 99% Calm Calm -- 28.98 in981.4 mb 0.00 in0.0 mm 0.00 in/hr0.0 mm/hr 0.00 in0.0 mm
08:00 AM 29.5°F-1.4°C 29.2°F-1.6°C 99% Calm Calm -- 28.98 in981.4 mb 0.00 in0.0 mm 0.00 in/hr0.0 mm/hr 0.00 in0.0 mm
07:55 AM 29.3°F-1.5°C 29.1°F-1.6°C 99% Calm Calm -- 28.98 in981.4 mb 0.00 in0.0 mm 0.00 in/hr0.0 mm/hr 0.00 in0.0 mm
07:50 AM 28.9°F-1.7°C 28.7°F-1.8°C 99% Calm Calm -- 28.98 in981.4 mb 0.00 in0.0 mm 0.00 in/hr0.0 mm/hr 0.00 in0.0 mm
07:45 AM 28.6°F-1.9°C 28.3°F-2.1°C 99% Calm Calm -- 28.98 in981.4 mb 0.00 in0.0 mm 0.00 in/hr0.0 mm/hr 0.00 in0.0 mm
07:40 AM 28.2°F-2.1°C 28.0°F-2.2°C 99% Calm Calm -- 28.98 in981.4 mb 0.00 in0.0 mm 0.00 in/hr0.0 mm/hr 0.00 in0.0 mm
07:35 AM 27.9°F-2.3°C 27.6°F-2.4°C 99% Calm Calm -- 28.97 in981.0 mb 0.00 in0.0 mm 0.00 in/hr0.0 mm/hr 0.00 in0.0 mm
07:30 AM 28.0°F-2.2°C 27.8°F-2.3°C 99% Calm Calm -- 28.97 in981.0 mb 0.00 in0.0 mm 0.00 in/hr0.0 mm/hr 0.00 in0.0 mm
07:25 AM 28.0°F-2.2°C 27.8°F-2.3°C 99% Calm Calm -- 28.96 in980.7 mb 0.00 in0.0 mm 0.00 in/hr0.0 mm/hr 0.00 in0.0 mm
07:20 AM 28.2°F-2.1°C 28.0°F-2.2°C 99% Calm Calm -- 28.96 in980.7 mb 0.00 in0.0 mm 0.00 in/hr0.0 mm/hr 0.00 in0.0 mm
07:15 AM 28.2°F-2.1°C 28.0°F-2.2°C 99% Calm Calm -- 28.96 in980.7 mb 0.00 in0.0 mm 0.00 in/hr0.0 mm/hr 0.00 in0.0 mm
07:10 AM 28.6°F-1.9°C 28.3°F-2.1°C 99% Calm Calm -- 28.96 in980.7 mb 0.00 in0.0 mm 0.00 in/hr0.0 mm/hr 0.00 in0.0 mm
07:05 AM 29.1°F-1.6°C 28.9°F-1.7°C 99% Calm Calm -- 28.95 in980.4 mb 0.00 in0.0 mm 0.00 in/hr0.0 mm/hr 0.00 in0.0 mm
07:00 AM 29.3°F-1.5°C 29.1°F-1.6°C 99% Calm Calm -- 28.95 in980.4 mb 0.00 in0.0 mm 0.00 in/hr0.0 mm/hr 0.00 in0.0 mm
06:55 AM 29.3°F-1.5°C 29.1°F-1.6°C 99% Calm Calm -- 28.95 in980.4 mb 0.00 in0.0 mm 0.00 in/hr0.0 mm/hr 0.00 in0.0 mm
06:50 AM 29.3°F-1.5°C 29.1°F-1.6°C 99% Calm Calm -- 28.95 in980.4 mb 0.00 in0.0 mm 0.00 in/hr0.0 mm/hr 0.00 in0.0 mm
06:45 AM 29.1°F-1.6°C 28.9°F-1.7°C 99% Calm Calm -- 28.94 in980.0 mb 0.00 in0.0 mm 0.00 in/hr0.0 mm/hr 0.00 in0.0 mm
06:40 AM 29.1°F-1.6°C 28.9°F-1.7°C 99% Calm Calm -- 28.94 in980.0 mb 0.00 in0.0 mm 0.00 in/hr0.0 mm/hr 0.00 in0.0 mm
06:35 AM 29.1°F-1.6°C 28.9°F-1.7°C 99% Calm Calm -- 28.94 in980.0 mb 0.00 in0.0 mm 0.00 in/hr0.0 mm/hr 0.00 in0.0 mm
06:30 AM 29.3°F-1.5°C 29.1°F-1.6°C 99% Calm Calm -- 28.94 in980.0 mb 0.00 in0.0 mm 0.00 in/hr0.0 mm/hr 0.00 in0.0 mm
06:25 AM 29.5°F-1.4°C 29.2°F-1.6°C 99% Calm Calm -- 28.94 in980.0 mb 0.00 in0.0 mm 0.00 in/hr0.0 mm/hr 0.00 in0.0 mm
06:20 AM 29.1°F-1.6°C 28.9°F-1.7°C 99% Calm Calm -- 28.94 in980.0 mb 0.00 in0.0 mm 0.00 in/hr0.0 mm/hr 0.00 in0.0 mm
06:15 AM 29.1°F-1.6°C 28.9°F-1.7°C 99% Calm Calm -- 28.94 in980.0 mb 0.00 in0.0 mm 0.00 in/hr0.0 mm/hr 0.00 in0.0 mm
06:10 AM 29.3°F-1.5°C 29.1°F-1.6°C 99% Calm Calm -- 28.93 in979.7 mb 0.00 in0.0 mm 0.00 in/hr0.0 mm/hr 0.00 in0.0 mm
06:05 AM 29.3°F-1.5°C 29.1°F-1.6°C 99% Calm Calm -- 28.94 in980.0 mb 0.00 in0.0 mm 0.00 in/hr0.0 mm/hr 0.00 in0.0 mm
06:00 AM 29.5°F-1.4°C 29.2°F-1.6°C 99% Calm Calm -- 28.93 in979.7 mb 0.00 in0.0 mm 0.00 in/hr0.0 mm/hr 0.00 in0.0 mm
05:55 AM 29.5°F-1.4°C 29.2°F-1.6°C 99% Calm Calm -- 28.93 in979.7 mb 0.00 in0.0 mm 0.00 in/hr0.0 mm/hr 0.00 in0.0 mm
05:50 AM 29.3°F-1.5°C 29.1°F-1.6°C 99% Calm Calm -- 28.93 in979.7 mb 0.00 in0.0 mm 0.00 in/hr0.0 mm/hr 0.00 in0.0 mm
05:45 AM 29.5°F-1.4°C 29.2°F-1.6°C 99% Calm Calm 0.2 mph0.3 kmh 28.93 in979.7 mb 0.00 in0.0 mm 0.00 in/hr0.0 mm/hr 0.00 in0.0 mm
05:40 AM 29.7°F-1.3°C 29.4°F-1.4°C 99% Calm Calm 0.2 mph0.3 kmh 28.93 in979.7 mb 0.00 in0.0 mm 0.00 in/hr0.0 mm/hr 0.00 in0.0 mm
05:35 AM 29.8°F-1.2°C 29.6°F-1.3°C 99% Calm Calm -- 28.92 in979.3 mb 0.00 in0.0 mm 0.00 in/hr0.0 mm/hr 0.00 in0.0 mm
05:30 AM 29.8°F-1.2°C 29.6°F-1.3°C 99% Calm Calm -- 28.92 in979.3 mb 0.00 in0.0 mm 0.00 in/hr0.0 mm/hr 0.00 in0.0 mm
05:25 AM 29.8°F-1.2°C 29.6°F-1.3°C 99% Calm Calm 0.4 mph0.6 kmh 28.92 in979.3 mb 0.00 in0.0 mm 0.00 in/hr0.0 mm/hr 0.00 in0.0 mm
05:20 AM 30.0°F-1.1°C 29.8°F-1.2°C 99% Calm Calm 0.4 mph0.6 kmh 28.92 in979.3 mb 0.00 in0.0 mm 0.00 in/hr0.0 mm/hr 0.00 in0.0 mm
05:15 AM 30.0°F-1.1°C 29.8°F-1.2°C 99% Calm Calm 0.4 mph0.6 kmh 28.92 in979.3 mb 0.00 in0.0 mm 0.00 in/hr0.0 mm/hr 0.00 in0.0 mm
05:10 AM 30.0°F-1.1°C 29.8°F-1.2°C 99% Calm Calm 0.4 mph0.6 kmh 28.92 in979.3 mb 0.00 in0.0 mm 0.00 in/hr0.0 mm/hr 0.00 in0.0 mm
05:05 AM 30.2°F-1.0°C 30.0°F-1.1°C 99% Calm Calm 0.4 mph0.6 kmh 28.92 in979.3 mb 0.00 in0.0 mm 0.00 in/hr0.0 mm/hr 0.00 in0.0 mm
05:00 AM 30.0°F-1.1°C 29.8°F-1.2°C 99% Calm Calm -- 28.92 in979.3 mb 0.00 in0.0 mm 0.00 in/hr0.0 mm/hr 0.00 in0.0 mm
04:55 AM 30.0°F-1.1°C 29.8°F-1.2°C 99% Calm Calm -- 28.92 in979.3 mb 0.00 in0.0 mm 0.00 in/hr0.0 mm/hr 0.00 in0.0 mm
04:50 AM 30.2°F-1.0°C 30.0°F-1.1°C 99% Calm Calm 0.4 mph0.6 kmh 28.92 in979.3 mb 0.00 in0.0 mm 0.00 in/hr0.0 mm/hr 0.00 in0.0 mm
04:45 AM 30.2°F-1.0°C 30.0°F-1.1°C 99% Calm Calm 0.4 mph0.6 kmh 28.92 in979.3 mb 0.00 in0.0 mm 0.00 in/hr0.0 mm/hr 0.00 in0.0 mm
04:40 AM 30.6°F-0.8°C 30.3°F-0.9°C 99% Calm Calm -- 28.91 in979.0 mb 0.00 in0.0 mm 0.00 in/hr0.0 mm/hr 0.00 in0.0 mm
04:35 AM 30.9°F-0.6°C 30.7°F-0.7°C 99% Calm Calm -- 28.91 in979.0 mb 0.00 in0.0 mm 0.00 in/hr0.0 mm/hr 0.00 in0.0 mm
04:30 AM 31.1°F-0.5°C 30.9°F-0.6°C 99% Calm Calm -- 28.91 in979.0 mb 0.00 in0.0 mm 0.00 in/hr0.0 mm/hr 0.00 in0.0 mm
04:25 AM 31.5°F-0.3°C 31.2°F-0.4°C 99% Calm Calm 0.2 mph0.3 kmh 28.91 in979.0 mb 0.00 in0.0 mm 0.00 in/hr0.0 mm/hr 0.00 in0.0 mm
04:20 AM 31.5°F-0.3°C 31.2°F-0.4°C 99% Calm Calm 0.2 mph0.3 kmh 28.91 in979.0 mb 0.00 in0.0 mm 0.00 in/hr0.0 mm/hr 0.00 in0.0 mm
04:15 AM 31.6°F-0.2°C 31.4°F-0.3°C 99% Calm Calm 0.2 mph0.3 kmh 28.91 in979.0 mb 0.00 in0.0 mm 0.00 in/hr0.0 mm/hr 0.00 in0.0 mm
04:10 AM 31.8°F-0.1°C 31.6°F-0.2°C 99% Calm Calm 0.2 mph0.3 kmh 28.90 in978.7 mb 0.00 in0.0 mm 0.00 in/hr0.0 mm/hr 0.00 in0.0 mm
04:05 AM 32.0°F0.0°C 31.8°F-0.1°C 99% Calm Calm 0.2 mph0.3 kmh 28.90 in978.7 mb 0.00 in0.0 mm 0.00 in/hr0.0 mm/hr 0.00 in0.0 mm
04:00 AM 32.2°F0.1°C 31.9°F-0.1°C 99% Calm Calm 0.2 mph0.3 kmh 28.90 in978.7 mb 0.00 in0.0 mm 0.00 in/hr0.0 mm/hr 0.00 in0.0 mm
03:55 AM 32.2°F0.1°C 31.9°F-0.1°C 99% Calm Calm 0.2 mph0.3 kmh 28.90 in978.7 mb 0.00 in0.0 mm 0.00 in/hr0.0 mm/hr 0.00 in0.0 mm
03:50 AM 32.0°F0.0°C 31.8°F-0.1°C 99% Calm Calm 0.2 mph0.3 kmh 28.90 in978.7 mb 0.00 in0.0 mm 0.00 in/hr0.0 mm/hr 0.00 in0.0 mm
03:45 AM 31.8°F-0.1°C 31.6°F-0.2°C 99% Calm Calm -- 28.90 in978.7 mb 0.00 in0.0 mm 0.00 in/hr0.0 mm/hr 0.00 in0.0 mm
03:40 AM 31.8°F-0.1°C 31.6°F-0.2°C 99% Calm Calm -- 28.90 in978.7 mb 0.00 in0.0 mm 0.00 in/hr0.0 mm/hr 0.00 in0.0 mm
03:35 AM 32.0°F0.0°C 31.8°F-0.1°C 99% Calm Calm 0.2 mph0.3 kmh 28.90 in978.7 mb 0.00 in0.0 mm 0.00 in/hr0.0 mm/hr 0.00 in0.0 mm
03:30 AM 32.0°F0.0°C 31.8°F-0.1°C 99% Calm Calm 0.4 mph0.6 kmh 28.90 in978.7 mb 0.00 in0.0 mm 0.00 in/hr0.0 mm/hr 0.00 in0.0 mm
03:25 AM 32.2°F0.1°C 31.9°F-0.1°C 99% Calm Calm 0.4 mph0.6 kmh 28.89 in978.3 mb 0.00 in0.0 mm 0.00 in/hr0.0 mm/hr 0.00 in0.0 mm
03:20 AM 32.4°F0.2°C 32.1°F0.1°C 99% 0.2 mph SE0.3 kmh SE 0.7 mph1.1 kmh 28.89 in978.3 mb 0.00 in0.0 mm 0.00 in/hr0.0 mm/hr 0.00 in0.0 mm
03:15 AM 32.4°F0.2°C 32.1°F0.1°C 99% 0.2 mph SE0.3 kmh SE 0.7 mph1.1 kmh 28.89 in978.3 mb 0.00 in0.0 mm 0.00 in/hr0.0 mm/hr 0.00 in0.0 mm
03:10 AM 32.4°F0.2°C 32.1°F0.1°C 99% 0.2 mph SE0.3 kmh SE 0.7 mph1.1 kmh 28.88 in978.0 mb 0.00 in0.0 mm 0.00 in/hr0.0 mm/hr 0.00 in0.0 mm
03:05 AM 32.5°F0.3°C 32.3°F0.2°C 99% Calm Calm 0.7 mph1.1 kmh 28.88 in978.0 mb 0.00 in0.0 mm 0.00 in/hr0.0 mm/hr 0.00 in0.0 mm
03:00 AM 32.5°F0.3°C 32.3°F0.2°C 99% 0.2 mph SE0.3 kmh SE 0.7 mph1.1 kmh 28.88 in978.0 mb 0.00 in0.0 mm 0.00 in/hr0.0 mm/hr 0.00 in0.0 mm
02:55 AM 32.5°F0.3°C 32.3°F0.2°C 99% 0.4 mph SE0.6 kmh SE 0.7 mph1.1 kmh 28.87 in977.7 mb 0.00 in0.0 mm 0.00 in/hr0.0 mm/hr 0.00 in0.0 mm
02:50 AM 32.5°F0.3°C 32.0°F0.0°C 98% Calm Calm 0.9 mph1.4 kmh 28.88 in978.0 mb 0.00 in0.0 mm 0.00 in/hr0.0 mm/hr 0.00 in0.0 mm
02:45 AM 32.5°F0.3°C 32.0°F0.0°C 98% Calm Calm 0.9 mph1.4 kmh 28.88 in978.0 mb 0.00 in0.0 mm 0.00 in/hr0.0 mm/hr 0.00 in0.0 mm
02:40 AM 32.5°F0.3°C 32.0°F0.0°C 98% Calm Calm 0.9 mph1.4 kmh 28.87 in977.7 mb 0.00 in0.0 mm 0.00 in/hr0.0 mm/hr 0.00 in0.0 mm
02:35 AM 32.5°F0.3°C 32.0°F0.0°C 98% 0.2 mph WNW0.3 kmh WNW 0.9 mph1.4 kmh 28.87 in977.7 mb 0.00 in0.0 mm 0.00 in/hr0.0 mm/hr 0.00 in0.0 mm
02:30 AM 32.7°F0.4°C 32.2°F0.1°C 98% 0.2 mph WNW0.3 kmh WNW 0.7 mph1.1 kmh 28.87 in977.7 mb 0.00 in0.0 mm 0.00 in/hr0.0 mm/hr 0.00 in0.0 mm
02:25 AM 32.7°F0.4°C 32.2°F0.1°C 98% Calm Calm 0.7 mph1.1 kmh 28.87 in977.7 mb 0.00 in0.0 mm 0.00 in/hr0.0 mm/hr 0.00 in0.0 mm
02:20 AM 32.9°F0.5°C 32.2°F0.1°C 97% Calm Calm 0.7 mph1.1 kmh 28.87 in977.7 mb 0.00 in0.0 mm 0.00 in/hr0.0 mm/hr 0.00 in0.0 mm
02:15 AM 32.9°F0.5°C 32.2°F0.1°C 97% Calm Calm 1.1 mph1.8 kmh 28.87 in977.7 mb 0.00 in0.0 mm 0.00 in/hr0.0 mm/hr 0.00 in0.0 mm
02:10 AM 32.9°F0.5°C 32.2°F0.1°C 97% Calm Calm 1.3 mph2.1 kmh 28.87 in977.7 mb 0.00 in0.0 mm 0.00 in/hr0.0 mm/hr 0.00 in0.0 mm
02:05 AM 32.9°F0.5°C 32.2°F0.1°C 97% Calm Calm 1.3 mph2.1 kmh 28.87 in977.7 mb 0.00 in0.0 mm 0.00 in/hr0.0 mm/hr 0.00 in0.0 mm
02:00 AM 33.1°F0.6°C 32.3°F0.2°C 97% 0.4 mph ESE0.6 kmh ESE 1.1 mph1.8 kmh 28.87 in977.7 mb 0.00 in0.0 mm 0.00 in/hr0.0 mm/hr 0.00 in0.0 mm
01:55 AM 33.1°F0.6°C 32.3°F0.2°C 97% 0.2 mph ESE0.3 kmh ESE 1.3 mph2.1 kmh 28.87 in977.7 mb 0.00 in0.0 mm 0.00 in/hr0.0 mm/hr 0.00 in0.0 mm
01:50 AM 33.1°F0.6°C 32.1°F0.1°C 96% 0.2 mph SE0.3 kmh SE 1.6 mph2.6 kmh 28.86 in977.3 mb 0.00 in0.0 mm 0.00 in/hr0.0 mm/hr 0.00 in0.0 mm
01:45 AM 33.4°F0.8°C 32.2°F0.1°C 95% 0.7 mph SE1.1 kmh SE 1.6 mph2.6 kmh 28.86 in977.3 mb 0.00 in0.0 mm 0.00 in/hr0.0 mm/hr 0.00 in0.0 mm
01:40 AM 33.6°F0.9°C 32.1°F0.1°C 94% 0.7 mph SE1.1 kmh SE 1.8 mph2.9 kmh 28.86 in977.3 mb 0.00 in0.0 mm 0.00 in/hr0.0 mm/hr 0.00 in0.0 mm
01:35 AM 33.8°F1.0°C 31.7°F-0.2°C 92% 0.9 mph ESE1.4 kmh ESE 1.8 mph2.9 kmh 28.86 in977.3 mb 0.00 in0.0 mm 0.00 in/hr0.0 mm/hr 0.00 in0.0 mm
01:30 AM 34.0°F1.1°C 31.6°F-0.2°C 91% 0.4 mph NW0.6 kmh NW 2.0 mph3.2 kmh 28.86 in977.3 mb 0.00 in0.0 mm 0.00 in/hr0.0 mm/hr 0.00 in0.0 mm
01:25 AM 34.3°F1.3°C 31.4°F-0.3°C 89% 0.4 mph NW0.6 kmh NW 2.0 mph3.2 kmh 28.85 in977.0 mb 0.00 in0.0 mm 0.00 in/hr0.0 mm/hr 0.00 in0.0 mm
01:20 AM 34.7°F1.5°C 31.8°F-0.1°C 89% 0.2 mph ESE0.3 kmh ESE 1.3 mph2.1 kmh 28.85 in977.0 mb 0.00 in0.0 mm 0.00 in/hr0.0 mm/hr 0.00 in0.0 mm
01:15 AM 34.9°F1.6°C 32.0°F0.0°C 89% Calm Calm 1.3 mph2.1 kmh 28.85 in977.0 mb 0.00 in0.0 mm 0.00 in/hr0.0 mm/hr 0.00 in0.0 mm
01:10 AM 34.9°F1.6°C 32.0°F0.0°C 89% 0.4 mph E0.6 kmh E 1.3 mph2.1 kmh 28.84 in976.6 mb 0.00 in0.0 mm 0.00 in/hr0.0 mm/hr 0.00 in0.0 mm
01:05 AM 34.7°F1.5°C 31.8°F-0.1°C 89% 0.4 mph ESE0.6 kmh ESE 1.8 mph2.9 kmh 28.84 in976.6 mb 0.00 in0.0 mm 0.00 in/hr0.0 mm/hr 0.00 in0.0 mm
01:00 AM 34.7°F1.5°C 31.8°F-0.1°C 89% 0.7 mph SE1.1 kmh SE 1.8 mph2.9 kmh 28.84 in976.6 mb 0.00 in0.0 mm 0.00 in/hr0.0 mm/hr 0.00 in0.0 mm
12:55 AM 34.5°F1.4°C 31.9°F-0.1°C 90% 0.7 mph ESE1.1 kmh ESE 2.2 mph3.5 kmh 28.84 in976.6 mb 0.00 in0.0 mm 0.00 in/hr0.0 mm/hr 0.00 in0.0 mm
12:50 AM 34.5°F1.4°C 31.9°F-0.1°C 90% 0.9 mph SE1.4 kmh SE 2.2 mph3.5 kmh 28.84 in976.6 mb 0.00 in0.0 mm 0.00 in/hr0.0 mm/hr 0.00 in0.0 mm
12:45 AM 34.3°F1.3°C 32.0°F0.0°C 91% 1.6 mph SE2.6 kmh SE 2.2 mph3.5 kmh 28.84 in976.6 mb 0.00 in0.0 mm 0.00 in/hr0.0 mm/hr 0.00 in0.0 mm
12:40 AM 34.5°F1.4°C 31.9°F-0.1°C 90% 0.9 mph SE1.4 kmh SE 2.5 mph4.0 kmh 28.84 in976.6 mb 0.00 in0.0 mm 0.00 in/hr0.0 mm/hr 0.00 in0.0 mm
12:35 AM 34.7°F1.5°C 32.1°F0.1°C 90% 1.1 mph SE1.8 kmh SE 2.5 mph4.0 kmh 28.84 in976.6 mb 0.00 in0.0 mm 0.00 in/hr0.0 mm/hr 0.00 in0.0 mm
12:30 AM 34.7°F1.5°C 32.1°F0.1°C 90% 1.3 mph SE2.1 kmh SE 2.9 mph4.7 kmh 28.84 in976.6 mb 0.00 in0.0 mm 0.00 in/hr0.0 mm/hr 0.00 in0.0 mm
12:25 AM 34.7°F1.5°C 32.1°F0.1°C 90% 1.1 mph SE1.8 kmh SE 2.9 mph4.7 kmh 28.83 in976.3 mb 0.00 in0.0 mm 0.00 in/hr0.0 mm/hr 0.00 in0.0 mm
12:20 AM 34.5°F1.4°C 32.2°F0.1°C 91% 1.1 mph ESE1.8 kmh ESE 2.2 mph3.5 kmh 28.83 in976.3 mb 0.00 in0.0 mm 0.00 in/hr0.0 mm/hr 0.00 in0.0 mm
12:15 AM 34.5°F1.4°C 32.2°F0.1°C 91% 1.1 mph E1.8 kmh E 2.2 mph3.5 kmh 28.83 in976.3 mb 0.00 in0.0 mm 0.00 in/hr0.0 mm/hr 0.00 in0.0 mm
12:10 AM 34.5°F1.4°C 32.2°F0.1°C 91% 0.9 mph E1.4 kmh E 1.8 mph2.9 kmh 28.83 in976.3 mb 0.00 in0.0 mm 0.00 in/hr0.0 mm/hr 0.00 in0.0 mm
12:05 AM 34.3°F1.3°C 32.0°F0.0°C 91% 0.2 mph ESE0.3 kmh ESE 2.5 mph4.0 kmh 28.83 in976.3 mb 0.00 in0.0 mm 0.00 in/hr0.0 mm/hr 0.00 in0.0 mm
12:00 AM 34.7°F1.5°C 32.1°F0.1°C 90% 0.7 mph ESE1.1 kmh ESE 2.5 mph4.0 kmh 28.83 in976.3 mb 0.00 in0.0 mm 0.00 in/hr0.0 mm/hr 0.38 in9.7 mm